Time;durP1;ratioP1;P1;durP2;ratioP2;P2;SDS_P1;SDS_P2;PMS_P1;PMS_P2;Temp;Humidity;BMP_temperature;BMP_pressure;BME280_temperature;BME280_humidity;BME280_pressure;Samples;Min_cycle;Max_cycle;Signal;HPM_P1;HPM_P2
2023/06/11 00:00:18;;;;;;;6.30;5.80;;;25.40;52.50;;;;;;6185550;23;20150;-70
2023/06/11 00:02:43;;;;;;;6.20;5.70;;;25.40;52.50;;;;;;6185396;23;20206;-70
2023/06/11 00:05:09;;;;;;;6.10;5.70;;;25.40;52.50;;;;;;6158899;23;20403;-71
2023/06/11 00:07:37;;;;;;;5.10;4.70;;;25.40;52.50;;;;;;6185399;23;20459;-71
2023/06/11 00:10:07;;;;;;;5.97;5.57;;;25.40;52.50;;;;;;6185278;23;20682;-71
2023/06/11 00:12:33;;;;;;;5.30;4.90;;;25.40;52.50;;;;;;6185593;23;20446;-71
2023/06/11 00:15:02;;;;;;;6.20;5.70;;;25.40;52.50;;;;;;6185264;23;20382;-71
2023/06/11 00:17:28;;;;;;;6.50;6.00;;;25.40;52.50;;;;;;6158876;23;20421;-71
2023/06/11 00:19:54;;;;;;;6.60;6.07;;;25.40;52.50;;;;;;6185278;23;20372;-70
2023/06/11 00:22:20;;;;;;;5.30;4.90;;;25.40;52.50;;;;;;6185249;23;20379;-71
2023/06/11 00:24:46;;;;;;;5.40;5.00;;;25.40;52.50;;;;;;6185177;23;20506;-70
2023/06/11 00:27:11;;;;;;;6.27;5.77;;;25.40;52.50;;;;;;6185364;23;20174;-71
2023/06/11 00:29:37;;;;;;;6.70;6.20;;;25.40;52.50;;;;;;6185118;23;20462;-71
2023/06/11 00:32:03;;;;;;;5.87;5.37;;;25.40;52.50;;;;;;6185188;23;20144;-70
2023/06/11 00:34:28;;;;;;;6.33;5.93;;;25.40;52.50;;;;;;6185062;23;20163;-71
2023/06/11 00:36:54;;;;;;;6.00;5.50;;;25.40;52.50;;;;;;6185135;23;20607;-70
2023/06/11 00:39:19;;;;;;;5.57;5.13;;;25.40;52.00;;;;;;6159178;23;20180;-70
2023/06/11 00:41:45;;;;;;;6.27;5.77;;;25.40;52.50;;;;;;6185087;23;20593;-71
2023/06/11 00:44:21;;;;;;;5.67;5.17;;;25.40;52.50;;;;;;6184987;23;20187;-71
2023/06/11 00:46:50;;;;;;;5.90;5.40;;;25.40;52.40;;;;;;6185112;23;20655;-70
2023/06/11 00:49:17;;;;;;;6.00;5.50;;;25.40;52.50;;;;;;6159435;23;20451;-70
2023/06/11 00:51:44;;;;;;;6.07;5.63;;;25.40;52.50;;;;;;6185038;23;20405;-71
2023/06/11 00:54:16;;;;;;;6.80;6.30;;;25.40;52.40;;;;;;6184816;23;20397;-70
2023/06/11 00:56:43;;;;;;;5.33;4.90;;;25.40;52.50;;;;;;6184754;23;20405;-70
2023/06/11 00:59:10;;;;;;;5.80;5.40;;;25.40;52.50;;;;;;6184904;23;20709;-71
2023/06/11 01:01:41;;;;;;;6.07;5.57;;;25.40;52.40;;;;;;6184894;23;20382;-70
2023/06/11 01:04:17;;;;;;;6.20;5.70;;;25.40;52.40;;;;;;6185073;23;20406;-70
2023/06/11 01:06:49;;;;;;;6.90;6.30;;;25.40;52.50;;;;;;6184913;23;20369;-71
2023/06/11 01:09:19;;;;;;;5.60;5.20;;;25.40;52.50;;;;;;6185123;23;20403;-71
2023/06/11 01:11:45;;;;;;;6.07;5.57;;;25.40;52.50;;;;;;6184762;23;20454;-71
2023/06/11 01:14:13;;;;;;;6.07;5.43;;;25.40;52.50;;;;;;6184988;23;20395;-70
2023/06/11 01:17:02;;;;;;;6.13;5.63;;;25.40;52.50;;;;;;6185031;23;20866;-71
2023/06/11 01:19:45;;;;;;;5.93;5.53;;;25.40;52.40;;;;;;6184782;23;20371;-71
2023/06/11 01:22:29;;;;;;;6.30;5.80;;;25.40;52.50;;;;;;6184705;23;20957;-71
2023/06/11 01:25:25;;;;;;;6.60;6.10;;;25.40;52.50;;;;;;6184935;23;20453;-71
2023/06/11 01:28:03;;;;;;;5.80;5.40;;;25.40;52.50;;;;;;6184985;23;20375;-70
2023/06/11 01:30:35;;;;;;;6.40;5.73;;;25.30;52.50;;;;;;6184639;23;20355;-71
2023/06/11 01:33:02;;;;;;;5.80;5.33;;;25.40;52.60;;;;;;6184634;23;20730;-71
2023/06/11 01:35:28;;;;;;;6.70;6.20;;;25.30;52.50;;;;;;6184759;23;20474;-71
2023/06/11 01:37:58;;;;;;;6.20;5.70;;;25.40;52.50;;;;;;6184486;23;20453;-71
2023/06/11 01:40:24;;;;;;;6.10;5.60;;;25.30;52.50;;;;;;6184558;23;20414;-70
2023/06/11 01:42:50;;;;;;;5.70;5.30;;;25.30;52.50;;;;;;6184417;23;20363;-71
2023/06/11 01:45:18;;;;;;;5.67;5.23;;;25.40;52.50;;;;;;6184432;23;20387;-71
2023/06/11 01:47:48;;;;;;;6.90;6.30;;;25.40;52.50;;;;;;6158011;23;20182;-70
2023/06/11 01:50:14;;;;;;;6.67;6.10;;;25.30;52.40;;;;;;6184676;23;20485;-70
2023/06/11 01:52:40;;;;;;;6.40;5.90;;;25.30;52.40;;;;;;6184357;23;20710;-71
2023/06/11 01:55:09;;;;;;;7.50;6.30;;;25.30;52.40;;;;;;6158176;23;20400;-70
2023/06/11 01:57:35;;;;;;;7.40;6.80;;;25.40;52.40;;;;;;6184380;23;20147;-70
2023/06/11 02:00:05;;;;;;;7.73;7.07;;;25.30;52.40;;;;;;6184695;23;20719;-71
2023/06/11 02:02:31;;;;;;;7.00;6.40;;;25.30;52.40;;;;;;6184633;23;20379;-70
2023/06/11 02:04:59;;;;;;;6.57;6.07;;;25.30;52.40;;;;;;6184185;23;20486;-71
2023/06/11 02:07:27;;;;;;;6.83;6.33;;;25.30;52.40;;;;;;6184275;23;20407;-70
2023/06/11 02:09:52;;;;;;;6.20;5.77;;;25.30;52.40;;;;;;6184184;23;20969;-70
2023/06/11 02:12:18;;;;;;;7.23;6.63;;;25.30;52.40;;;;;;6184579;23;20893;-71
2023/06/11 02:14:43;;;;;;;7.63;7.03;;;25.30;52.40;;;;;;6184459;23;20175;-71
2023/06/11 02:17:09;;;;;;;7.10;6.50;;;25.30;52.40;;;;;;6184028;23;20179;-70
2023/06/11 02:19:35;;;;;;;7.23;6.63;;;25.30;52.40;;;;;;6184114;23;20151;-70
2023/06/11 02:22:01;;;;;;;6.67;6.17;;;25.30;52.40;;;;;;6157747;23;20445;-70
2023/06/11 02:24:26;;;;;;;7.50;6.90;;;25.30;52.40;;;;;;6184391;23;20171;-71
2023/06/11 02:26:52;;;;;;;7.10;6.50;;;25.30;52.40;;;;;;6184213;23;20162;-71
2023/06/11 02:29:17;;;;;;;6.53;6.03;;;25.30;52.40;;;;;;6184050;23;20226;-71
2023/06/11 02:31:43;;;;;;;7.03;6.43;;;25.30;52.40;;;;;;6184158;23;20152;-71
2023/06/11 02:34:09;;;;;;;6.67;6.17;;;25.30;52.40;;;;;;6184344;23;20178;-70
2023/06/11 02:36:35;;;;;;;7.37;6.77;;;25.30;52.40;;;;;;6184114;23;20455;-70
2023/06/11 02:39:00;;;;;;;6.80;6.30;;;25.30;52.40;;;;;;6184044;23;20151;-71
2023/06/11 02:41:26;;;;;;;6.73;6.13;;;25.30;52.40;;;;;;6184067;23;20401;-70
2023/06/11 02:43:52;;;;;;;6.70;6.20;;;25.30;52.40;;;;;;6183912;23;20209;-71
2023/06/11 02:46:18;;;;;;;6.80;6.30;;;25.30;52.30;;;;;;6184013;23;20759;-71
2023/06/11 02:48:43;;;;;;;7.83;7.03;;;25.30;52.30;;;;;;6183961;23;20203;-71
2023/06/11 02:51:09;;;;;;;7.27;6.57;;;25.30;52.30;;;;;;6184031;23;20158;-70
2023/06/11 02:53:35;;;;;;;6.90;6.30;;;25.30;52.30;;;;;;6157501;23;20159;-70
2023/06/11 02:56:00;;;;;;;6.57;6.07;;;25.30;52.30;;;;;;6183801;23;20187;-70
2023/06/11 02:58:26;;;;;;;7.53;6.93;;;25.30;52.30;;;;;;6183983;23;20148;-70
2023/06/11 03:00:51;;;;;;;8.37;7.67;;;25.30;52.30;;;;;;6183765;23;20159;-71
2023/06/11 03:03:17;;;;;;;7.33;6.70;;;25.30;52.30;;;;;;6183941;23;20202;-71
2023/06/11 03:05:43;;;;;;;7.00;6.40;;;25.30;52.30;;;;;;6183907;23;20182;-70
2023/06/11 03:08:08;;;;;;;7.50;6.90;;;25.30;52.30;;;;;;6157637;23;20155;-70
2023/06/11 03:10:34;;;;;;;7.37;6.80;;;25.30;52.30;;;;;;6183915;23;20155;-70
2023/06/11 03:12:59;;;;;;;8.60;7.40;;;25.30;52.30;;;;;;6183892;23;20206;-71
2023/06/11 03:15:25;;;;;;;7.43;6.90;;;25.30;52.20;;;;;;6183810;23;20167;-71
2023/06/11 03:17:50;;;;;;;6.97;6.37;;;25.30;52.20;;;;;;6183602;23;20231;-71
2023/06/11 03:20:16;;;;;;;7.60;6.90;;;25.30;52.20;;;;;;6183888;23;20148;-71
2023/06/11 03:22:42;;;;;;;7.63;6.60;;;25.30;52.20;;;;;;6157515;23;20184;-71
2023/06/11 03:25:07;;;;;;;7.50;6.90;;;25.30;52.20;;;;;;6183769;23;20172;-71
2023/06/11 03:27:33;;;;;;;8.10;7.30;;;25.30;52.20;;;;;;6183849;23;20182;-71
2023/06/11 03:29:59;;;;;;;7.90;7.30;;;25.30;52.20;;;;;;6185689;23;20552;-71
2023/06/11 03:32:24;;;;;;;8.03;7.33;;;25.20;52.10;;;;;;6185856;23;20159;-71
2023/06/11 03:34:53;;;;;;;7.20;6.60;;;25.20;52.20;;;;;;6184257;23;20482;-71
2023/06/11 03:37:18;;;;;;;7.83;7.00;;;25.20;52.20;;;;;;6185936;23;20159;-71
2023/06/11 03:39:44;;;;;;;6.63;6.03;;;25.30;52.20;;;;;;6185660;23;20373;-70
2023/06/11 03:42:10;;;;;;;7.30;6.70;;;25.20;52.10;;;;;;6185641;23;20210;-71
2023/06/11 03:44:36;;;;;;;7.60;6.90;;;25.30;52.20;;;;;;6185344;23;20478;-70
2023/06/11 03:47:02;;;;;;;7.13;6.53;;;25.20;52.10;;;;;;6185660;23;20148;-70
2023/06/11 03:49:27;;;;;;;7.80;7.10;;;25.20;52.10;;;;;;6185521;23;20975;-71
2023/06/11 03:51:53;;;;;;;7.60;6.90;;;25.20;52.20;;;;;;6185604;23;20591;-71
2023/06/11 03:54:19;;;;;;;7.23;6.63;;;25.20;52.10;;;;;;6185737;23;20182;-71
2023/06/11 03:56:44;;;;;;;7.40;6.70;;;25.20;52.10;;;;;;6185344;23;20244;-71
2023/06/11 03:59:10;;;;;;;7.30;6.80;;;25.30;52.20;;;;;;6185563;23;20562;-71
2023/06/11 04:01:36;;;;;;;7.50;6.80;;;25.20;52.10;;;;;;6185423;23;20158;-71
2023/06/11 04:04:01;;;;;;;6.87;6.30;;;25.30;52.20;;;;;;6184833;23;20163;-70
2023/06/11 04:06:27;;;;;;;7.40;6.77;;;25.20;52.10;;;;;;6185078;23;20151;-71
2023/06/11 04:08:53;;;;;;;7.90;7.30;;;25.20;52.10;;;;;;6185233;23;20171;-71
2023/06/11 04:11:19;;;;;;;7.10;6.50;;;25.30;52.20;;;;;;6185406;23;20371;-71
2023/06/11 04:13:49;;;;;;;6.73;6.23;;;25.30;52.20;;;;;;6185658;23;20531;-70
2023/06/11 04:16:17;;;;;;;7.40;6.80;;;25.20;52.10;;;;;;6185258;23;20132;-71
2023/06/11 04:18:43;;;;;;;7.23;6.63;;;25.30;52.20;;;;;;6159007;23;20395;-71
2023/06/11 04:21:08;;;;;;;7.80;7.20;;;25.30;52.70;;;;;;6185340;23;20410;-71
2023/06/11 04:23:34;;;;;;;6.93;6.33;;;25.30;52.20;;;;;;6185282;23;20186;-70
2023/06/11 04:26:01;;;;;;;7.43;6.80;;;25.30;52.20;;;;;;6158731;23;20183;-70
2023/06/11 04:28:27;;;;;;;6.90;6.40;;;25.30;52.20;;;;;;6185109;23;20422;-71
2023/06/11 04:30:57;;;;;;;6.63;6.13;;;25.30;52.20;;;;;;6158791;23;20383;-71
2023/06/11 04:33:32;;;;;;;7.90;7.20;;;25.30;52.10;;;;;;6185253;23;20498;-71
2023/06/11 04:36:07;;;;;;;7.10;6.60;;;25.30;52.20;;;;;;6158699;23;20819;-71
2023/06/11 04:38:34;;;;;;;7.07;6.47;;;25.30;52.20;;;;;;6185220;23;20358;-71
2023/06/11 04:41:00;;;;;;;6.90;6.30;;;25.30;52.20;;;;;;6184841;23;20401;-71
2023/06/11 04:43:26;;;;;;;6.80;6.30;;;25.30;52.20;;;;;;6185115;23;20414;-71
2023/06/11 04:45:59;;;;;;;6.87;6.30;;;25.30;52.20;;;;;;6185313;23;20789;-71
2023/06/11 04:48:27;;;;;;;6.67;6.17;;;25.30;52.20;;;;;;6184975;23;20407;-71
2023/06/11 04:50:55;;;;;;;7.03;6.43;;;25.30;52.20;;;;;;6185018;23;20401;-71
2023/06/11 04:53:22;;;;;;;6.93;6.33;;;25.30;52.20;;;;;;6184965;23;20375;-71
2023/06/11 04:55:54;;;;;;;7.00;6.40;;;25.30;52.20;;;;;;6184733;23;20494;-71
2023/06/11 04:58:24;;;;;;;7.30;6.80;;;25.30;52.10;;;;;;6184940;23;20378;-71
2023/06/11 05:00:51;;;;;;;6.37;5.77;;;25.30;52.20;;;;;;6184975;23;20405;-71
2023/06/11 05:03:18;;;;;;;6.80;6.27;;;25.30;52.20;;;;;;6184809;23;20376;-71
2023/06/11 05:05:51;;;;;;;7.30;6.60;;;25.30;52.20;;;;;;6184830;23;20470;-71
2023/06/11 05:08:24;;;;;;;7.77;6.93;;;25.30;52.10;;;;;;6185062;23;20394;-71
2023/06/11 05:10:50;;;;;;;6.87;6.37;;;25.30;52.20;;;;;;6184836;23;20363;-71
2023/06/11 05:13:16;;;;;;;6.57;6.07;;;25.40;52.20;;;;;;6184776;23;20474;-71
2023/06/11 05:15:41;;;;;;;8.00;7.40;;;25.30;52.10;;;;;;6184603;23;20476;-71
2023/06/11 05:18:07;;;;;;;7.93;7.33;;;25.40;52.80;;;;;;6185059;23;20151;-71
2023/06/11 05:20:33;;;;;;;7.17;6.57;;;25.30;52.20;;;;;;6184726;23;20586;-71
2023/06/11 05:22:59;;;;;;;7.40;6.60;;;25.30;52.20;;;;;;6184768;23;20154;-71
2023/06/11 05:25:29;;;;;;;6.83;6.30;;;25.40;52.30;;;;;;6158172;23;20229;-70
2023/06/11 05:27:57;;;;;;;7.80;7.20;;;25.30;52.20;;;;;;6184979;23;20458;-70
2023/06/11 05:30:25;;;;;;;6.60;6.00;;;25.30;52.20;;;;;;6184641;23;20506;-71
2023/06/11 05:32:53;;;;;;;6.57;6.07;;;25.40;52.30;;;;;;6184565;23;20371;-71
2023/06/11 05:35:18;;;;;;;6.00;5.50;;;25.40;52.30;;;;;;6158074;23;20801;-71
2023/06/11 05:37:44;;;;;;;5.80;5.30;;;25.40;52.30;;;;;;6184571;23;20374;-71
2023/06/11 05:40:11;;;;;;;6.90;6.30;;;25.40;52.20;;;;;;6184546;23;20569;-71
2023/06/11 05:42:37;;;;;;;6.50;6.00;;;25.40;52.20;;;;;;6184476;23;20166;-71
2023/06/11 05:45:04;;;;;;;6.67;6.07;;;25.40;52.20;;;;;;6184472;23;20399;-71
2023/06/11 05:47:29;;;;;;;6.50;5.93;;;25.40;52.30;;;;;;6184446;23;20386;-71
2023/06/11 05:49:55;;;;;;;6.90;6.20;;;25.40;52.20;;;;;;6184423;23;20414;-71
2023/06/11 05:52:21;;;;;;;6.60;6.10;;;25.40;52.20;;;;;;6184301;23;20144;-71
2023/06/11 05:54:46;;;;;;;6.97;6.37;;;25.40;52.20;;;;;;6184458;23;20516;-71
2023/06/11 05:57:24;;;;;;;8.13;7.33;;;25.40;52.20;;;;;;6158066;23;20178;-71
2023/06/11 05:59:50;;;;;;;6.47;5.87;;;25.40;52.20;;;;;;6185128;23;20497;-71
2023/06/11 06:02:16;;;;;;;7.10;6.60;;;25.40;52.30;;;;;;6184687;23;20379;-70
2023/06/11 06:04:42;;;;;;;6.70;6.20;;;25.40;52.30;;;;;;6184447;23;20418;-71
2023/06/11 06:07:07;;;;;;;6.87;6.27;;;25.40;52.30;;;;;;6184849;23;20486;-71
2023/06/11 06:09:33;;;;;;;7.73;7.10;;;25.40;52.30;;;;;;6184490;23;20172;-71
2023/06/11 06:12:00;;;;;;;7.97;7.17;;;25.40;52.30;;;;;;6184730;23;20477;-71
2023/06/11 06:14:26;;;;;;;7.20;6.67;;;25.40;52.30;;;;;;6184211;23;20728;-70
2023/06/11 06:16:51;;;;;;;7.50;7.00;;;25.40;52.30;;;;;;6184299;23;20414;-71
2023/06/11 06:19:17;;;;;;;6.67;6.17;;;25.40;52.30;;;;;;6184230;23;20845;-70
2023/06/11 06:21:43;;;;;;;7.17;6.60;;;25.40;52.30;;;;;;6184215;23;20218;-70
2023/06/11 06:24:10;;;;;;;8.30;7.10;;;25.40;52.30;;;;;;6184159;23;20175;-71
2023/06/11 06:26:40;;;;;;;7.60;6.80;;;25.40;52.40;;;;;;6184259;23;20633;-70
2023/06/11 06:29:14;;;;;;;7.07;6.57;;;25.40;52.40;;;;;;6184180;23;20411;-70
2023/06/11 06:31:41;;;;;;;6.77;6.17;;;25.40;52.40;;;;;;6184254;23;20761;-71
2023/06/11 06:34:07;;;;;;;8.93;8.13;;;25.40;52.40;;;;;;6183980;23;20425;-71
2023/06/11 06:36:35;;;;;;;7.53;6.80;;;25.40;52.40;;;;;;6184184;23;20371;-71
2023/06/11 06:39:01;;;;;;;6.90;6.40;;;25.40;52.40;;;;;;6184107;23;20402;-71
2023/06/11 06:41:27;;;;;;;7.30;6.70;;;25.40;52.40;;;;;;6157654;23;20866;-72
2023/06/11 06:43:53;;;;;;;7.67;7.07;;;25.40;52.40;;;;;;6183996;23;20386;-70
2023/06/11 06:46:18;;;;;;;8.30;7.60;;;25.40;52.40;;;;;;6184124;23;20162;-71
2023/06/11 06:48:44;;;;;;;8.50;7.80;;;25.40;52.40;;;;;;6184244;23;20657;-71
2023/06/11 06:51:10;;;;;;;7.23;6.63;;;25.40;52.40;;;;;;6184016;23;20178;-71
2023/06/11 06:53:35;;;;;;;6.67;6.17;;;25.40;52.40;;;;;;6184053;23;20159;-72
2023/06/11 06:56:02;;;;;;;6.60;6.10;;;25.40;52.40;;;;;;6183951;23;20190;-71
2023/06/11 06:58:27;;;;;;;7.23;6.73;;;25.40;52.40;;;;;;6184001;23;20213;-71
2023/06/11 07:00:53;;;;;;;7.13;6.53;;;25.40;52.50;;;;;;6157911;23;20462;-71
2023/06/11 07:03:19;;;;;;;6.93;6.33;;;25.40;52.40;;;;;;6185180;23;20151;-71
2023/06/11 07:05:44;;;;;;;7.33;6.63;;;25.40;52.40;;;;;;6185899;23;20172;-71
2023/06/11 07:08:11;;;;;;;6.97;6.47;;;25.40;52.40;;;;;;6186012;23;20155;-71
2023/06/11 07:10:41;;;;;;;7.67;7.07;;;25.40;52.40;;;;;;6185989;23;20171;-72
2023/06/11 07:13:10;;;;;;;6.50;6.00;;;25.40;52.40;;;;;;6185919;23;20373;-72
2023/06/11 07:15:35;;;;;;;8.73;7.40;;;25.40;52.40;;;;;;6185863;23;20387;-72
2023/06/11 07:18:01;;;;;;;6.40;5.90;;;25.40;52.40;;;;;;6185938;23;20885;-72
2023/06/11 07:20:26;;;;;;;7.60;6.70;;;25.40;52.40;;;;;;6185932;23;20170;-72
2023/06/11 07:22:52;;;;;;;7.90;7.10;;;25.40;52.40;;;;;;6185895;23;20467;-72
2023/06/11 07:25:17;;;;;;;7.67;6.97;;;25.40;52.40;;;;;;6186055;23;20183;-72
2023/06/11 07:27:43;;;;;;;7.70;7.10;;;25.40;52.40;;;;;;6185906;23;20155;-72
2023/06/11 07:30:10;;;;;;;7.10;6.50;;;25.40;52.30;;;;;;6185696;23;20222;-72
2023/06/11 07:32:36;;;;;;;7.77;7.13;;;25.40;52.40;;;;;;6185757;23;20202;-72
2023/06/11 07:35:01;;;;;;;7.40;6.73;;;25.40;52.40;;;;;;6185651;23;20739;-72
2023/06/11 07:37:27;;;;;;;7.77;7.07;;;25.50;52.40;;;;;;6185829;23;20371;-72
2023/06/11 07:39:53;;;;;;;7.17;6.57;;;25.40;52.30;;;;;;6185695;23;20498;-72
2023/06/11 07:42:18;;;;;;;6.97;6.37;;;25.50;52.40;;;;;;6185768;23;20275;-71
2023/06/11 07:44:44;;;;;;;7.53;6.93;;;25.40;52.30;;;;;;6185598;23;20171;-72
2023/06/11 07:47:10;;;;;;;6.83;6.33;;;25.50;52.30;;;;;;6185577;23;20151;-72
2023/06/11 07:49:35;;;;;;;7.13;6.53;;;25.40;52.20;;;;;;6185538;23;20279;-71
2023/06/11 07:52:01;;;;;;;6.60;6.10;;;25.50;52.30;;;;;;6159378;23;20195;-71
2023/06/11 07:54:27;;;;;;;8.20;7.37;;;25.40;52.20;;;;;;6185578;23;20242;-72
2023/06/11 07:56:53;;;;;;;7.30;6.60;;;25.40;52.20;;;;;;6185434;23;20159;-71
2023/06/11 07:59:18;;;;;;;6.70;6.20;;;25.50;52.30;;;;;;6185459;23;20394;-70
2023/06/11 08:01:44;;;;;;;6.60;6.10;;;25.40;52.20;;;;;;6185855;23;20164;-72
2023/06/11 08:04:10;;;;;;;6.73;6.13;;;25.50;52.30;;;;;;6185461;23;20178;-72
2023/06/11 08:06:35;;;;;;;7.00;6.30;;;25.40;52.20;;;;;;6185533;23;20183;-72
2023/06/11 08:09:01;;;;;;;6.47;5.97;;;25.50;52.30;;;;;;6185440;23;20270;-72
2023/06/11 08:11:27;;;;;;;6.90;6.40;;;25.50;52.30;;;;;;6159020;23;20152;-71
2023/06/11 08:13:52;;;;;;;6.87;6.27;;;25.50;52.30;;;;;;6184926;23;20162;-71
2023/06/11 08:16:18;;;;;;;6.20;5.70;;;25.40;52.20;;;;;;6185288;23;20140;-73
2023/06/11 08:18:44;;;;;;;6.60;6.03;;;25.50;52.20;;;;;;6185596;23;20159;-71
2023/06/11 08:21:09;;;;;;;6.73;6.13;;;25.50;52.20;;;;;;6185361;23;20152;-71
2023/06/11 08:23:36;;;;;;;6.60;6.00;;;25.50;52.20;;;;;;6185276;23;20179;-71
2023/06/11 08:26:02;;;;;;;6.73;6.13;;;25.50;52.20;;;;;;6185134;23;20237;-71
2023/06/11 08:28:28;;;;;;;6.60;6.00;;;25.50;52.20;;;;;;6185112;23;20418;-71
2023/06/11 08:30:54;;;;;;;9.83;6.50;;;25.50;52.20;;;;;;6185223;23;20466;-71
2023/06/11 08:33:20;;;;;;;6.07;5.57;;;25.50;52.20;;;;;;6185221;23;20151;-71
2023/06/11 08:35:47;;;;;;;6.63;5.83;;;25.40;52.20;;;;;;6185120;23;20391;-71
2023/06/11 08:38:13;;;;;;;6.43;5.87;;;25.50;52.30;;;;;;6185218;23;20712;-71
2023/06/11 08:40:42;;;;;;;7.00;6.50;;;25.50;52.30;;;;;;6185144;23;20364;-72
2023/06/11 08:43:08;;;;;;;6.83;6.33;;;25.50;52.30;;;;;;6185351;23;20378;-71
2023/06/11 08:45:34;;;;;;;6.20;5.70;;;25.50;52.30;;;;;;6185069;23;20401;-71
2023/06/11 08:48:03;;;;;;;6.47;5.97;;;25.50;52.30;;;;;;6185077;23;20410;-72
2023/06/11 08:50:29;;;;;;;5.40;5.00;;;25.50;52.40;;;;;;6184980;23;20173;-72
2023/06/11 08:52:56;;;;;;;7.23;6.00;;;25.50;52.40;;;;;;6159042;23;20371;-72
2023/06/11 08:55:22;;;;;;;6.60;6.00;;;25.50;52.40;;;;;;6184810;23;20733;-72
2023/06/11 08:57:50;;;;;;;5.80;5.40;;;25.50;52.40;;;;;;6184906;23;20710;-71
2023/06/11 09:00:16;;;;;;;6.83;6.20;;;25.50;52.40;;;;;;6158738;23;20190;-71
2023/06/11 09:02:42;;;;;;;7.17;5.50;;;25.50;52.40;;;;;;6184896;23;20383;-72
2023/06/11 09:05:08;;;;;;;6.63;6.10;;;25.50;52.50;;;;;;6184934;23;20395;-71
2023/06/11 09:07:36;;;;;;;6.57;6.00;;;25.50;52.50;;;;;;6184971;23;20371;-72
2023/06/11 09:10:06;;;;;;;10.10;6.27;;;25.50;52.50;;;;;;6158383;23;20433;-72
2023/06/11 09:12:31;;;;;;;6.70;6.10;;;25.50;52.50;;;;;;6184866;23;20375;-72
2023/06/11 09:14:57;;;;;;;5.60;5.17;;;25.50;52.50;;;;;;6184796;23;20989;-72
2023/06/11 09:17:23;;;;;;;5.93;5.33;;;25.50;52.50;;;;;;6184866;23;20190;-72
2023/06/11 09:19:53;;;;;;;5.80;5.30;;;25.50;52.50;;;;;;6184832;23;20152;-71
2023/06/11 09:22:26;;;;;;;6.00;5.40;;;25.50;52.50;;;;;;6158474;23;20151;-72
2023/06/11 09:24:51;;;;;;;5.93;5.43;;;25.50;52.50;;;;;;6185111;23;20445;-71
2023/06/11 09:27:20;;;;;;;6.00;5.50;;;25.50;52.50;;;;;;6185149;23;20850;-72
2023/06/11 09:29:46;;;;;;;5.77;5.27;;;25.50;52.50;;;;;;6184774;23;20573;-72
2023/06/11 09:32:12;;;;;;;5.57;5.07;;;25.50;52.50;;;;;;6184701;23;20407;-72
2023/06/11 09:34:40;;;;;;;6.23;5.63;;;25.50;52.50;;;;;;6184581;23;20168;-71
2023/06/11 09:37:09;;;;;;;6.80;6.20;;;25.50;52.50;;;;;;6184923;23;20394;-71
2023/06/11 09:39:35;;;;;;;5.50;5.07;;;25.50;52.50;;;;;;6185458;23;20421;-73
2023/06/11 09:42:01;;;;;;;5.87;5.37;;;25.50;52.50;;;;;;6158320;23;20383;-72
2023/06/11 09:44:31;;;;;;;5.70;5.30;;;25.50;52.50;;;;;;6184327;23;20548;-72
2023/06/11 09:46:57;;;;;;;5.40;4.90;;;25.50;52.50;;;;;;6184461;23;20159;-70
2023/06/11 09:49:24;;;;;;;5.30;4.90;;;25.50;52.50;;;;;;6184308;23;20414;-72
2023/06/11 09:51:52;;;;;;;5.20;4.70;;;25.50;52.50;;;;;;6185325;23;20375;-71
2023/06/11 09:54:20;;;;;;;5.20;4.80;;;25.50;53.10;;;;;;6184408;23;20391;-71
2023/06/11 09:56:47;;;;;;;5.20;4.80;;;25.50;52.50;;;;;;6184543;23;20409;-71
2023/06/11 09:59:16;;;;;;;5.27;4.87;;;25.50;52.50;;;;;;6158128;23;20701;-71
2023/06/11 10:01:47;;;;;;;5.30;4.80;;;25.50;52.50;;;;;;6184249;23;20425;-72
2023/06/11 10:04:12;;;;;;;5.33;4.93;;;25.50;52.50;;;;;;6184764;23;20398;-72
2023/06/11 10:06:50;;;;;;;5.30;4.90;;;25.50;52.50;;;;;;6158091;23;20391;-71
2023/06/11 10:09:16;;;;;;;4.57;4.17;;;25.50;52.40;;;;;;6184693;23;20175;-72
2023/06/11 10:11:44;;;;;;;5.43;4.93;;;25.50;52.50;;;;;;6184408;23;20382;-72
2023/06/11 10:14:12;;;;;;;5.80;5.30;;;25.50;52.50;;;;;;6184181;23;20396;-72
2023/06/11 10:16:38;;;;;;;4.80;4.50;;;25.50;52.50;;;;;;6184125;23;20368;-72
2023/06/11 10:19:08;;;;;;;5.33;4.93;;;25.50;52.50;;;;;;6184185;23;20402;-72
2023/06/11 10:21:39;;;;;;;4.47;4.17;;;25.50;52.50;;;;;;6184307;23;20206;-72
2023/06/11 10:24:06;;;;;;;5.00;4.60;;;25.50;52.50;;;;;;6184184;23;20482;-72
2023/06/11 10:26:35;;;;;;;5.10;4.70;;;25.50;52.50;;;;;;6184152;23;20469;-72
2023/06/11 10:29:09;;;;;;;5.20;4.70;;;25.50;52.50;;;;;;6184229;23;20758;-72
2023/06/11 10:31:42;;;;;;;7.60;5.10;;;25.50;52.50;;;;;;6184304;23;20704;-71
2023/06/11 10:34:13;;;;;;;5.13;4.73;;;25.50;52.50;;;;;;6184119;23;20351;-71
2023/06/11 10:36:41;;;;;;;4.93;4.53;;;25.50;52.50;;;;;;6184189;23;20394;-72
2023/06/11 10:39:09;;;;;;;4.83;4.43;;;25.50;52.50;;;;;;6183920;23;20409;-72
2023/06/11 10:41:42;;;;;;;5.30;4.80;;;25.50;52.50;;;;;;6184275;23;20386;-72
2023/06/11 10:44:10;;;;;;;4.73;4.33;;;25.50;52.50;;;;;;6157354;23;20393;-71
2023/06/11 10:46:54;;;;;;;5.13;4.73;;;25.50;52.50;;;;;;6157614;23;20383;-71
2023/06/11 10:49:26;;;;;;;4.63;4.23;;;25.50;52.50;;;;;;6184403;23;20407;-70
2023/06/11 10:51:52;;;;;;;5.40;4.80;;;25.50;52.50;;;;;;6184019;23;20378;-70
2023/06/11 10:54:32;;;;;;;5.60;5.10;;;25.50;52.50;;;;;;6183830;23;20391;-71
2023/06/11 10:57:02;;;;;;;4.87;4.47;;;25.50;52.50;;;;;;6157441;23;20399;-71
2023/06/11 10:59:29;;;;;;;5.27;4.87;;;25.50;52.50;;;;;;6184286;23;20391;-71
2023/06/11 11:01:56;;;;;;;4.63;4.23;;;25.50;52.50;;;;;;6182791;23;20371;-71
2023/06/11 11:04:22;;;;;;;5.60;5.10;;;25.50;52.50;;;;;;6183929;23;20399;-71
2023/06/11 11:06:48;;;;;;;4.70;4.30;;;25.50;52.50;;;;;;6157511;23;20390;-71
2023/06/11 11:09:23;;;;;;;5.73;4.53;;;25.50;52.50;;;;;;6183867;23;20415;-71
2023/06/11 11:11:50;;;;;;;4.57;4.17;;;25.50;52.50;;;;;;6184002;23;20358;-71
2023/06/11 11:14:17;;;;;;;4.80;4.40;;;25.50;52.50;;;;;;6157325;23;20406;-71
2023/06/11 11:16:47;;;;;;;4.43;4.10;;;25.50;52.50;;;;;;6183899;23;20373;-71
2023/06/11 11:19:13;;;;;;;4.63;4.23;;;25.50;52.50;;;;;;6184052;23;20378;-71
2023/06/11 11:21:39;;;;;;;4.70;4.30;;;25.50;52.50;;;;;;6184193;23;20375;-72
2023/06/11 11:24:14;;;;;;;5.10;4.70;;;25.50;52.50;;;;;;6183824;23;20766;-71
2023/06/11 11:26:44;;;;;;;4.53;4.13;;;25.50;52.50;;;;;;6183988;23;20182;-72
2023/06/11 11:29:09;;;;;;;4.13;3.83;;;25.50;52.60;;;;;;6184079;23;20418;-71
2023/06/11 11:31:36;;;;;;;4.97;3.97;;;25.50;52.50;;;;;;6184199;23;20383;-70
2023/06/11 11:34:02;;;;;;;4.10;3.80;;;25.50;52.50;;;;;;6183724;23;20152;-71
2023/06/11 11:36:27;;;;;;;4.00;3.70;;;25.50;52.50;;;;;;6183811;23;20371;-71
2023/06/11 11:38:53;;;;;;;4.20;3.80;;;25.50;52.50;;;;;;6157442;23;20167;-70
2023/06/11 11:41:24;;;;;;;4.73;4.30;;;25.50;52.50;;;;;;6183838;23;20226;-70
2023/06/11 11:43:50;;;;;;;4.70;4.30;;;25.50;52.50;;;;;;6183985;23;20506;-71
2023/06/11 11:46:23;;;;;;;4.97;4.47;;;25.50;52.50;;;;;;6183752;23;20379;-72
2023/06/11 11:48:53;;;;;;;4.63;4.23;;;25.50;52.50;;;;;;6183774;23;20493;-71
2023/06/11 11:51:19;;;;;;;4.57;4.17;;;25.50;52.50;;;;;;6185879;23;20818;-71
2023/06/11 11:53:45;;;;;;;5.10;4.70;;;25.50;52.50;;;;;;6185579;23;20466;-72
2023/06/11 11:56:12;;;;;;;4.37;3.97;;;25.50;52.50;;;;;;6185333;23;20267;-72
2023/06/11 11:58:39;;;;;;;4.10;3.80;;;25.50;52.50;;;;;;6185556;23;20744;-70
2023/06/11 12:01:08;;;;;;;4.27;3.93;;;25.50;52.50;;;;;;6185458;23;20624;-72
2023/06/11 12:03:34;;;;;;;4.63;4.23;;;25.50;52.50;;;;;;6185331;23;20375;-72
2023/06/11 12:06:04;;;;;;;4.77;4.37;;;25.50;52.40;;;;;;6185334;23;20525;-72
2023/06/11 12:08:32;;;;;;;4.93;4.53;;;25.50;52.50;;;;;;6185348;23;20143;-71
2023/06/11 12:10:59;;;;;;;5.10;4.60;;;25.50;52.50;;;;;;6185418;23;20375;-72
2023/06/11 12:13:25;;;;;;;5.53;4.17;;;25.50;52.50;;;;;;6185781;23;20703;-71
2023/06/11 12:15:51;;;;;;;4.13;3.83;;;25.50;52.50;;;;;;6158806;23;20395;-71
2023/06/11 12:18:17;;;;;;;4.80;4.33;;;25.50;52.50;;;;;;6185296;23;20402;-71
2023/06/11 12:20:42;;;;;;;4.20;3.83;;;25.50;52.50;;;;;;6185273;23;20375;-73
2023/06/11 12:23:08;;;;;;;4.73;4.33;;;25.50;52.50;;;;;;6185262;23;20151;-72
2023/06/11 12:25:34;;;;;;;4.20;3.90;;;25.50;52.50;;;;;;6185206;23;20242;-72
2023/06/11 12:28:00;;;;;;;4.93;4.53;;;25.50;52.50;;;;;;6185472;23;20685;-72
2023/06/11 12:30:29;;;;;;;4.87;4.37;;;25.50;52.50;;;;;;6185416;23;20186;-71
2023/06/11 12:32:54;;;;;;;4.47;4.00;;;25.50;52.50;;;;;;6185507;23;20394;-71
2023/06/11 12:35:20;;;;;;;4.40;4.00;;;25.50;53.10;;;;;;6185110;23;20414;-71
2023/06/11 12:37:45;;;;;;;4.70;4.20;;;25.50;52.50;;;;;;6159007;23;20175;-72
2023/06/11 12:40:12;;;;;;;4.93;4.53;;;25.50;52.50;;;;;;6185135;23;20530;-71
2023/06/11 12:42:38;;;;;;;5.07;4.67;;;25.50;52.50;;;;;;6185265;23;20772;-72
2023/06/11 12:45:04;;;;;;;4.80;4.40;;;25.50;52.50;;;;;;6184978;23;20391;-71
2023/06/11 12:47:30;;;;;;;4.47;4.10;;;25.50;52.50;;;;;;6185003;23;20382;-72